sensor_id;sensor_type;location;lat;lon;timestamp;temperature;humidity
20891;DHT22;10605;52.968;8.844;2024-03-23T00:55:37;7.10;99.90
20891;DHT22;10605;52.968;8.844;2024-03-23T00:58:03;7.00;99.90
20891;DHT22;10605;52.968;8.844;2024-03-23T01:00:28;7.00;99.90
20891;DHT22;10605;52.968;8.844;2024-03-23T01:02:54;7.00;99.90
20891;DHT22;10605;52.968;8.844;2024-03-23T01:05:20;7.00;99.90
20891;DHT22;10605;52.968;8.844;2024-03-23T01:07:45;6.90;99.90
20891;DHT22;10605;52.968;8.844;2024-03-23T01:10:11;6.90;99.90
20891;DHT22;10605;52.968;8.844;2024-03-23T01:12:36;6.90;99.90
20891;DHT22;10605;52.968;8.844;2024-03-23T01:15:02;6.90;99.90
20891;DHT22;10605;52.968;8.844;2024-03-23T01:17:28;6.80;99.90
20891;DHT22;10605;52.968;8.844;2024-03-23T01:19:53;6.80;99.90
20891;DHT22;10605;52.968;8.844;2024-03-23T01:22:19;6.80;99.90
20891;DHT22;10605;52.968;8.844;2024-03-23T01:24:45;6.80;99.90
20891;DHT22;10605;52.968;8.844;2024-03-23T01:27:10;6.80;99.90
20891;DHT22;10605;52.968;8.844;2024-03-23T01:29:36;6.80;99.90
20891;DHT22;10605;52.968;8.844;2024-03-23T01:32:01;6.80;99.90
20891;DHT22;10605;52.968;8.844;2024-03-23T01:34:27;6.80;99.90
20891;DHT22;10605;52.968;8.844;2024-03-23T01:36:53;6.80;99.90
20891;DHT22;10605;52.968;8.844;2024-03-23T01:39:19;6.70;99.90
20891;DHT22;10605;52.968;8.844;2024-03-23T01:41:44;6.70;99.90
20891;DHT22;10605;52.968;8.844;2024-03-23T01:44:10;6.70;99.90
20891;DHT22;10605;52.968;8.844;2024-03-23T01:46:37;6.70;99.90
20891;DHT22;10605;52.968;8.844;2024-03-23T01:49:06;6.70;99.90
20891;DHT22;10605;52.968;8.844;2024-03-23T01:51:33;6.70;99.90
20891;DHT22;10605;52.968;8.844;2024-03-23T01:54:00;6.60;99.90
20891;DHT22;10605;52.968;8.844;2024-03-23T01:56:29;6.60;99.90
20891;DHT22;10605;52.968;8.844;2024-03-23T01:58:55;6.60;99.90
20891;DHT22;10605;52.968;8.844;2024-03-23T02:01:21;6.60;99.90
20891;DHT22;10605;52.968;8.844;2024-03-23T02:03:46;6.60;99.90
20891;DHT22;10605;52.968;8.844;2024-03-23T02:06:12;6.60;99.90
20891;DHT22;10605;52.968;8.844;2024-03-23T02:08:38;6.60;99.90
20891;DHT22;10605;52.968;8.844;2024-03-23T02:11:04;6.60;99.90
20891;DHT22;10605;52.968;8.844;2024-03-23T02:13:30;6.60;99.90
20891;DHT22;10605;52.968;8.844;2024-03-23T02:15:57;6.60;99.90
20891;DHT22;10605;52.968;8.844;2024-03-23T02:18:22;6.60;99.90
20891;DHT22;10605;52.968;8.844;2024-03-23T02:20:48;6.50;99.90
20891;DHT22;10605;52.968;8.844;2024-03-23T02:23:14;6.50;99.90
20891;DHT22;10605;52.968;8.844;2024-03-23T02:25:40;6.50;99.90
20891;DHT22;10605;52.968;8.844;2024-03-23T02:28:06;6.50;99.90
20891;DHT22;10605;52.968;8.844;2024-03-23T02:30:31;6.50;99.90
20891;DHT22;10605;52.968;8.844;2024-03-23T02:32:57;6.50;99.90
20891;DHT22;10605;52.968;8.844;2024-03-23T02:35:23;6.50;99.90
20891;DHT22;10605;52.968;8.844;2024-03-23T02:37:48;6.50;99.90
20891;DHT22;10605;52.968;8.844;2024-03-23T02:40:15;6.50;99.90
20891;DHT22;10605;52.968;8.844;2024-03-23T02:42:41;6.50;99.90
20891;DHT22;10605;52.968;8.844;2024-03-23T02:45:07;6.50;99.90
20891;DHT22;10605;52.968;8.844;2024-03-23T02:47:33;6.50;99.90
20891;DHT22;10605;52.968;8.844;2024-03-23T02:49:59;6.50;99.90
20891;DHT22;10605;52.968;8.844;2024-03-23T02:52:24;6.50;99.90
20891;DHT22;10605;52.968;8.844;2024-03-23T02:54:50;6.50;99.90
20891;DHT22;10605;52.968;8.844;2024-03-23T02:57:15;6.50;99.90
20891;DHT22;10605;52.968;8.844;2024-03-23T02:59:41;6.50;99.90
20891;DHT22;10605;52.968;8.844;2024-03-23T03:02:07;6.40;99.90
20891;DHT22;10605;52.968;8.844;2024-03-23T03:04:33;6.50;99.90
20891;DHT22;10605;52.968;8.844;2024-03-23T03:06:58;6.40;99.90
20891;DHT22;10605;52.968;8.844;2024-03-23T03:09:24;6.40;99.90
20891;DHT22;10605;52.968;8.844;2024-03-23T03:11:50;6.50;99.90
20891;DHT22;10605;52.968;8.844;2024-03-23T03:14:16;6.40;99.90
20891;DHT22;10605;52.968;8.844;2024-03-23T03:16:41;6.50;99.90
20891;DHT22;10605;52.968;8.844;2024-03-23T03:19:07;6.40;99.90
20891;DHT22;10605;52.968;8.844;2024-03-23T03:21:32;6.40;99.90
20891;DHT22;10605;52.968;8.844;2024-03-23T03:23:58;6.40;99.90
20891;DHT22;10605;52.968;8.844;2024-03-23T03:26:24;6.40;99.90
20891;DHT22;10605;52.968;8.844;2024-03-23T03:28:50;6.40;99.90
20891;DHT22;10605;52.968;8.844;2024-03-23T03:31:16;6.40;99.90
20891;DHT22;10605;52.968;8.844;2024-03-23T03:33:42;6.40;99.90
20891;DHT22;10605;52.968;8.844;2024-03-23T03:36:08;6.40;99.90
20891;DHT22;10605;52.968;8.844;2024-03-23T03:38:34;6.40;99.90
20891;DHT22;10605;52.968;8.844;2024-03-23T03:41:04;6.40;99.90
20891;DHT22;10605;52.968;8.844;2024-03-23T03:43:30;6.40;99.90
20891;DHT22;10605;52.968;8.844;2024-03-23T03:45:57;6.40;99.90
20891;DHT22;10605;52.968;8.844;2024-03-23T03:48:23;6.40;99.90
20891;DHT22;10605;52.968;8.844;2024-03-23T03:50:49;6.40;99.90
20891;DHT22;10605;52.968;8.844;2024-03-23T03:53:15;6.40;99.90
20891;DHT22;10605;52.968;8.844;2024-03-23T03:55:40;6.30;99.90
20891;DHT22;10605;52.968;8.844;2024-03-23T03:58:06;6.30;99.90
20891;DHT22;10605;52.968;8.844;2024-03-23T04:00:31;6.30;99.90
20891;DHT22;10605;52.968;8.844;2024-03-23T04:02:57;6.30;99.90
20891;DHT22;10605;52.968;8.844;2024-03-23T04:05:23;6.30;99.90
20891;DHT22;10605;52.968;8.844;2024-03-23T04:07:49;6.30;99.90
20891;DHT22;10605;52.968;8.844;2024-03-23T04:10:15;6.30;99.90
20891;DHT22;10605;52.968;8.844;2024-03-23T04:12:41;6.20;99.90
20891;DHT22;10605;52.968;8.844;2024-03-23T04:15:07;6.20;99.90
20891;DHT22;10605;52.968;8.844;2024-03-23T04:17:33;6.20;99.90
20891;DHT22;10605;52.968;8.844;2024-03-23T04:20:00;6.20;99.90
20891;DHT22;10605;52.968;8.844;2024-03-23T04:22:26;6.20;99.90
20891;DHT22;10605;52.968;8.844;2024-03-23T04:24:56;6.20;99.90
20891;DHT22;10605;52.968;8.844;2024-03-23T04:27:23;6.20;99.90
20891;DHT22;10605;52.968;8.844;2024-03-23T04:29:52;6.20;99.90
20891;DHT22;10605;52.968;8.844;2024-03-23T04:32:18;6.10;99.90
20891;DHT22;10605;52.968;8.844;2024-03-23T04:34:44;6.10;99.90
20891;DHT22;10605;52.968;8.844;2024-03-23T04:37:11;6.10;99.90
20891;DHT22;10605;52.968;8.844;2024-03-23T04:39:37;6.10;99.90
20891;DHT22;10605;52.968;8.844;2024-03-23T04:42:03;6.20;99.90
20891;DHT22;10605;52.968;8.844;2024-03-23T04:44:29;6.20;99.90
20891;DHT22;10605;52.968;8.844;2024-03-23T04:46:56;6.10;99.90
20891;DHT22;10605;52.968;8.844;2024-03-23T04:49:22;6.10;99.90
20891;DHT22;10605;52.968;8.844;2024-03-23T04:51:47;6.10;99.90
20891;DHT22;10605;52.968;8.844;2024-03-23T04:54:13;6.10;99.90
20891;DHT22;10605;52.968;8.844;2024-03-23T04:56:38;6.20;99.90
20891;DHT22;10605;52.968;8.844;2024-03-23T04:59:04;6.20;99.90
20891;DHT22;10605;52.968;8.844;2024-03-23T05:01:33;6.10;99.90
20891;DHT22;10605;52.968;8.844;2024-03-23T05:03:59;6.10;99.90
20891;DHT22;10605;52.968;8.844;2024-03-23T05:06:25;6.20;99.90
20891;DHT22;10605;52.968;8.844;2024-03-23T05:08:51;6.20;99.90
20891;DHT22;10605;52.968;8.844;2024-03-23T05:11:17;6.10;99.90
20891;DHT22;10605;52.968;8.844;2024-03-23T05:13:43;6.20;99.90
20891;DHT22;10605;52.968;8.844;2024-03-23T05:16:09;6.20;99.90
20891;DHT22;10605;52.968;8.844;2024-03-23T05:18:35;6.10;99.90
20891;DHT22;10605;52.968;8.844;2024-03-23T05:21:01;6.10;99.90
20891;DHT22;10605;52.968;8.844;2024-03-23T05:23:28;6.10;99.90
20891;DHT22;10605;52.968;8.844;2024-03-23T05:25:55;6.10;99.90
20891;DHT22;10605;52.968;8.844;2024-03-23T05:28:21;6.20;99.90
20891;DHT22;10605;52.968;8.844;2024-03-23T05:30:54;6.10;99.90
20891;DHT22;10605;52.968;8.844;2024-03-23T05:33:20;6.10;99.90
20891;DHT22;10605;52.968;8.844;2024-03-23T05:35:46;6.10;99.90
20891;DHT22;10605;52.968;8.844;2024-03-23T05:38:13;6.10;99.90
20891;DHT22;10605;52.968;8.844;2024-03-23T05:40:39;6.10;99.90
20891;DHT22;10605;52.968;8.844;2024-03-23T05:43:06;6.10;99.90
20891;DHT22;10605;52.968;8.844;2024-03-23T05:45:32;6.00;99.90
20891;DHT22;10605;52.968;8.844;2024-03-23T05:47:58;6.00;99.90
20891;DHT22;10605;52.968;8.844;2024-03-23T05:50:24;6.00;99.90
20891;DHT22;10605;52.968;8.844;2024-03-23T05:52:51;6.00;99.90
20891;DHT22;10605;52.968;8.844;2024-03-23T05:55:17;5.90;99.90
20891;DHT22;10605;52.968;8.844;2024-03-23T05:57:43;5.90;99.90
20891;DHT22;10605;52.968;8.844;2024-03-23T06:00:09;6.00;99.90
20891;DHT22;10605;52.968;8.844;2024-03-23T06:02:44;6.00;99.90
20891;DHT22;10605;52.968;8.844;2024-03-23T06:05:12;6.00;99.90
20891;DHT22;10605;52.968;8.844;2024-03-23T06:07:38;6.00;99.90
20891;DHT22;10605;52.968;8.844;2024-03-23T06:10:05;6.10;99.90
20891;DHT22;10605;52.968;8.844;2024-03-23T06:12:31;6.00;99.90
20891;DHT22;10605;52.968;8.844;2024-03-23T06:14:57;6.10;99.90
20891;DHT22;10605;52.968;8.844;2024-03-23T06:17:23;6.10;99.90
20891;DHT22;10605;52.968;8.844;2024-03-23T06:19:49;6.10;99.90
20891;DHT22;10605;52.968;8.844;2024-03-23T06:22:15;6.20;99.90
20891;DHT22;10605;52.968;8.844;2024-03-23T06:24:40;6.30;99.90
20891;DHT22;10605;52.968;8.844;2024-03-23T06:27:06;6.50;99.90
20891;DHT22;10605;52.968;8.844;2024-03-23T06:29:32;6.90;99.90
20891;DHT22;10605;52.968;8.844;2024-03-23T06:31:57;7.30;99.90
20891;DHT22;10605;52.968;8.844;2024-03-23T06:34:23;7.80;99.90
20891;DHT22;10605;52.968;8.844;2024-03-23T06:36:49;8.20;99.90
20891;DHT22;10605;52.968;8.844;2024-03-23T06:39:18;8.60;99.90
20891;DHT22;10605;52.968;8.844;2024-03-23T06:41:52;8.90;99.90
20891;DHT22;10605;52.968;8.844;2024-03-23T06:44:18;9.30;99.90
20891;DHT22;10605;52.968;8.844;2024-03-23T06:46:44;9.80;99.90
20891;DHT22;10605;52.968;8.844;2024-03-23T06:49:10;10.20;99.90
20891;DHT22;10605;52.968;8.844;2024-03-23T06:51:36;10.70;99.90
20891;DHT22;10605;52.968;8.844;2024-03-23T06:54:03;11.00;99.90
20891;DHT22;10605;52.968;8.844;2024-03-23T06:56:29;11.20;99.90
20891;DHT22;10605;52.968;8.844;2024-03-23T06:58:56;11.60;99.90
20891;DHT22;10605;52.968;8.844;2024-03-23T07:01:21;11.60;99.90
20891;DHT22;10605;52.968;8.844;2024-03-23T07:03:47;11.60;99.90
20891;DHT22;10605;52.968;8.844;2024-03-23T07:06:13;11.40;99.90
20891;DHT22;10605;52.968;8.844;2024-03-23T07:08:38;11.60;99.90
20891;DHT22;10605;52.968;8.844;2024-03-23T07:11:04;11.90;99.90
20891;DHT22;10605;52.968;8.844;2024-03-23T07:13:30;11.80;99.90
20891;DHT22;10605;52.968;8.844;2024-03-23T07:15:56;11.90;99.90
20891;DHT22;10605;52.968;8.844;2024-03-23T07:18:23;12.20;99.90
20891;DHT22;10605;52.968;8.844;2024-03-23T07:20:53;12.50;99.90
20891;DHT22;10605;52.968;8.844;2024-03-23T07:23:19;13.00;99.90
20891;DHT22;10605;52.968;8.844;2024-03-23T07:25:45;12.80;99.90
20891;DHT22;10605;52.968;8.844;2024-03-23T07:28:10;13.30;99.90
20891;DHT22;10605;52.968;8.844;2024-03-23T07:30:36;13.00;99.90
20891;DHT22;10605;52.968;8.844;2024-03-23T07:33:02;13.40;99.90
20891;DHT22;10605;52.968;8.844;2024-03-23T07:35:27;13.60;99.90
20891;DHT22;10605;52.968;8.844;2024-03-23T07:37:53;13.70;99.90
20891;DHT22;10605;52.968;8.844;2024-03-23T07:40:18;13.30;99.90
20891;DHT22;10605;52.968;8.844;2024-03-23T07:42:44;13.50;99.90
20891;DHT22;10605;52.968;8.844;2024-03-23T07:45:09;13.00;99.90
20891;DHT22;10605;52.968;8.844;2024-03-23T07:47:35;13.30;99.90
20891;DHT22;10605;52.968;8.844;2024-03-23T07:50:01;13.00;99.90
20891;DHT22;10605;52.968;8.844;2024-03-23T07:52:30;13.00;99.90
20891;DHT22;10605;52.968;8.844;2024-03-23T07:54:56;12.90;99.90
20891;DHT22;10605;52.968;8.844;2024-03-23T07:57:21;12.80;99.90
20891;DHT22;10605;52.968;8.844;2024-03-23T07:59:47;13.10;99.90
20891;DHT22;10605;52.968;8.844;2024-03-23T08:02:12;12.50;99.90
20891;DHT22;10605;52.968;8.844;2024-03-23T08:04:38;12.40;99.90
20891;DHT22;10605;52.968;8.844;2024-03-23T08:07:04;12.10;99.90
20891;DHT22;10605;52.968;8.844;2024-03-23T08:09:29;12.20;99.90
20891;DHT22;10605;52.968;8.844;2024-03-23T08:11:55;12.60;99.90
20891;DHT22;10605;52.968;8.844;2024-03-23T08:14:20;12.60;99.90
20891;DHT22;10605;52.968;8.844;2024-03-23T08:16:46;11.60;99.90
20891;DHT22;10605;52.968;8.844;2024-03-23T08:19:15;12.30;99.90
20891;DHT22;10605;52.968;8.844;2024-03-23T08:21:40;12.60;99.90
20891;DHT22;10605;52.968;8.844;2024-03-23T08:24:06;13.20;99.90
20891;DHT22;10605;52.968;8.844;2024-03-23T08:26:32;12.70;99.90
20891;DHT22;10605;52.968;8.844;2024-03-23T08:28:58;11.80;99.90
20891;DHT22;10605;52.968;8.844;2024-03-23T08:31:23;11.90;99.90
20891;DHT22;10605;52.968;8.844;2024-03-23T08:33:49;12.60;99.90
20891;DHT22;10605;52.968;8.844;2024-03-23T08:36:15;13.00;99.90
20891;DHT22;10605;52.968;8.844;2024-03-23T08:38:41;12.10;99.90
20891;DHT22;10605;52.968;8.844;2024-03-23T08:41:10;11.80;99.90
20891;DHT22;10605;52.968;8.844;2024-03-23T08:43:40;11.40;99.90
20891;DHT22;10605;52.968;8.844;2024-03-23T08:46:15;10.80;99.90
20891;DHT22;10605;52.968;8.844;2024-03-23T08:48:43;11.10;99.90
20891;DHT22;10605;52.968;8.844;2024-03-23T08:51:10;11.60;99.90
20891;DHT22;10605;52.968;8.844;2024-03-23T08:53:36;12.60;99.90
20891;DHT22;10605;52.968;8.844;2024-03-23T08:56:03;12.80;99.90
20891;DHT22;10605;52.968;8.844;2024-03-23T08:58:31;13.40;99.90
20891;DHT22;10605;52.968;8.844;2024-03-23T09:01:03;12.90;99.90
20891;DHT22;10605;52.968;8.844;2024-03-23T09:03:30;12.80;99.90
20891;DHT22;10605;52.968;8.844;2024-03-23T09:05:56;14.10;99.90
20891;DHT22;10605;52.968;8.844;2024-03-23T09:08:23;13.70;99.90
20891;DHT22;10605;52.968;8.844;2024-03-23T09:10:49;12.50;99.90
20891;DHT22;10605;52.968;8.844;2024-03-23T09:13:15;12.60;99.90
20891;DHT22;10605;52.968;8.844;2024-03-23T09:15:51;12.20;99.90
20891;DHT22;10605;52.968;8.844;2024-03-23T09:18:19;12.00;99.90
20891;DHT22;10605;52.968;8.844;2024-03-23T09:20:44;11.50;99.90
20891;DHT22;10605;52.968;8.844;2024-03-23T09:23:10;11.00;99.90
20891;DHT22;10605;52.968;8.844;2024-03-23T09:25:39;11.00;99.90
20891;DHT22;10605;52.968;8.844;2024-03-23T09:28:06;10.30;99.90
20891;DHT22;10605;52.968;8.844;2024-03-23T09:30:33;9.00;99.90
20891;DHT22;10605;52.968;8.844;2024-03-23T09:32:59;8.50;99.90
20891;DHT22;10605;52.968;8.844;2024-03-23T09:35:24;8.30;99.90
20891;DHT22;10605;52.968;8.844;2024-03-23T09:37:50;8.30;99.90
20891;DHT22;10605;52.968;8.844;2024-03-23T09:40:16;8.30;99.90
20891;DHT22;10605;52.968;8.844;2024-03-23T09:42:42;8.50;99.90
20891;DHT22;10605;52.968;8.844;2024-03-23T09:45:23;8.90;99.90
20891;DHT22;10605;52.968;8.844;2024-03-23T09:47:51;9.30;99.90
20891;DHT22;10605;52.968;8.844;2024-03-23T09:50:17;9.80;99.90
20891;DHT22;10605;52.968;8.844;2024-03-23T09:52:45;10.70;99.90
20891;DHT22;10605;52.968;8.844;2024-03-23T09:55:11;11.20;99.90
20891;DHT22;10605;52.968;8.844;2024-03-23T09:57:36;12.30;99.90
20891;DHT22;10605;52.968;8.844;2024-03-23T10:00:03;12.80;99.90
20891;DHT22;10605;52.968;8.844;2024-03-23T10:02:29;12.60;99.90
20891;DHT22;10605;52.968;8.844;2024-03-23T10:04:55;12.60;99.90
20891;DHT22;10605;52.968;8.844;2024-03-23T10:07:21;13.10;99.90
20891;DHT22;10605;52.968;8.844;2024-03-23T10:09:50;13.30;99.90
20891;DHT22;10605;52.968;8.844;2024-03-23T10:12:18;14.80;99.90
20891;DHT22;10605;52.968;8.844;2024-03-23T10:14:44;17.10;99.90
20891;DHT22;10605;52.968;8.844;2024-03-23T10:17:22;18.20;99.90
20891;DHT22;10605;52.968;8.844;2024-03-23T10:19:52;18.60;99.90
20891;DHT22;10605;52.968;8.844;2024-03-23T10:22:24;19.50;99.90
20891;DHT22;10605;52.968;8.844;2024-03-23T10:24:50;15.90;99.90
20891;DHT22;10605;52.968;8.844;2024-03-23T10:27:17;14.80;99.90
20891;DHT22;10605;52.968;8.844;2024-03-23T10:29:47;14.20;99.90
20891;DHT22;10605;52.968;8.844;2024-03-23T10:32:14;13.40;99.90
20891;DHT22;10605;52.968;8.844;2024-03-23T10:34:40;13.70;99.90
20891;DHT22;10605;52.968;8.844;2024-03-23T10:37:06;13.00;99.90
20891;DHT22;10605;52.968;8.844;2024-03-23T10:42:04;13.60;99.90
20891;DHT22;10605;52.968;8.844;2024-03-23T10:44:30;12.70;99.90
20891;DHT22;10605;52.968;8.844;2024-03-23T10:46:57;12.50;99.90
20891;DHT22;10605;52.968;8.844;2024-03-23T10:49:31;12.00;99.90
20891;DHT22;10605;52.968;8.844;2024-03-23T10:51:58;11.40;99.90
20891;DHT22;10605;52.968;8.844;2024-03-23T10:54:28;11.70;99.90
20891;DHT22;10605;52.968;8.844;2024-03-23T10:57:12;11.30;99.90
20891;DHT22;10605;52.968;8.844;2024-03-23T10:59:40;11.20;99.90
20891;DHT22;10605;52.968;8.844;2024-03-23T11:02:05;11.60;99.90
20891;DHT22;10605;52.968;8.844;2024-03-23T11:04:37;11.40;99.90
20891;DHT22;10605;52.968;8.844;2024-03-23T11:09:50;11.50;99.90
20891;DHT22;10605;52.968;8.844;2024-03-23T11:17:25;16.30;99.90
20891;DHT22;10605;52.968;8.844;2024-03-23T11:20:06;18.50;99.90
20891;DHT22;10605;52.968;8.844;2024-03-23T11:22:38;18.70;99.90
20891;DHT22;10605;52.968;8.844;2024-03-23T11:27:38;18.60;98.70
20891;DHT22;10605;52.968;8.844;2024-03-23T11:32:37;17.60;99.00
20891;DHT22;10605;52.968;8.844;2024-03-23T11:35:03;18.10;97.30
20891;DHT22;10605;52.968;8.844;2024-03-23T11:37:28;16.10;98.20
20891;DHT22;10605;52.968;8.844;2024-03-23T11:39:54;16.90;96.50
20891;DHT22;10605;52.968;8.844;2024-03-23T11:42:20;15.90;98.70
20891;DHT22;10605;52.968;8.844;2024-03-23T11:44:47;14.80;99.90
20891;DHT22;10605;52.968;8.844;2024-03-23T11:47:13;16.00;99.90
20891;DHT22;10605;52.968;8.844;2024-03-23T11:49:38;16.50;99.90
20891;DHT22;10605;52.968;8.844;2024-03-23T11:52:06;15.50;99.90
20891;DHT22;10605;52.968;8.844;2024-03-23T11:54:33;14.90;99.90
20891;DHT22;10605;52.968;8.844;2024-03-23T11:57:08;14.20;99.90
20891;DHT22;10605;52.968;8.844;2024-03-23T11:59:41;14.30;99.90
20891;DHT22;10605;52.968;8.844;2024-03-23T12:02:13;16.10;99.90
20891;DHT22;10605;52.968;8.844;2024-03-23T12:04:40;19.20;99.90
20891;DHT22;10605;52.968;8.844;2024-03-23T12:07:19;16.70;99.90
20891;DHT22;10605;52.968;8.844;2024-03-23T12:10:07;17.50;98.50
20891;DHT22;10605;52.968;8.844;2024-03-23T12:12:32;19.50;95.60
20891;DHT22;10605;52.968;8.844;2024-03-23T12:17:37;18.90;94.60
20891;DHT22;10605;52.968;8.844;2024-03-23T12:20:02;18.80;96.20
20891;DHT22;10605;52.968;8.844;2024-03-23T12:22:28;19.30;93.70
20891;DHT22;10605;52.968;8.844;2024-03-23T12:24:57;19.10;93.40
20891;DHT22;10605;52.968;8.844;2024-03-23T12:27:23;17.00;93.30
20891;DHT22;10605;52.968;8.844;2024-03-23T12:29:49;15.10;94.90
20891;DHT22;10605;52.968;8.844;2024-03-23T12:32:14;13.20;99.90
20891;DHT22;10605;52.968;8.844;2024-03-23T12:34:41;11.40;99.90
20891;DHT22;10605;52.968;8.844;2024-03-23T12:37:07;9.60;99.90
20891;DHT22;10605;52.968;8.844;2024-03-23T12:39:33;8.30;99.90
20891;DHT22;10605;52.968;8.844;2024-03-23T12:42:01;7.90;99.90
20891;DHT22;10605;52.968;8.844;2024-03-23T12:44:27;7.70;99.90
20891;DHT22;10605;52.968;8.844;2024-03-23T12:46:52;8.90;99.90
20891;DHT22;10605;52.968;8.844;2024-03-23T12:49:18;9.60;99.90
20891;DHT22;10605;52.968;8.844;2024-03-23T12:51:55;10.00;99.90
20891;DHT22;10605;52.968;8.844;2024-03-23T12:54:21;9.90;99.90
20891;DHT22;10605;52.968;8.844;2024-03-23T12:56:47;10.00;99.90
20891;DHT22;10605;52.968;8.844;2024-03-23T12:59:13;9.60;99.90
20891;DHT22;10605;52.968;8.844;2024-03-23T13:01:39;9.50;99.90
20891;DHT22;10605;52.968;8.844;2024-03-23T13:04:05;10.30;99.90
20891;DHT22;10605;52.968;8.844;2024-03-23T13:06:30;10.40;99.90
20891;DHT22;10605;52.968;8.844;2024-03-23T13:09:03;10.40;99.90
20891;DHT22;10605;52.968;8.844;2024-03-23T13:11:29;10.40;99.90
20891;DHT22;10605;52.968;8.844;2024-03-23T13:13:55;11.00;99.90
20891;DHT22;10605;52.968;8.844;2024-03-23T13:16:21;11.60;99.90
20891;DHT22;10605;52.968;8.844;2024-03-23T13:18:46;11.90;99.90
20891;DHT22;10605;52.968;8.844;2024-03-23T13:21:12;11.40;99.90
20891;DHT22;10605;52.968;8.844;2024-03-23T13:23:37;11.20;99.90
20891;DHT22;10605;52.968;8.844;2024-03-23T13:26:05;11.00;99.90
20891;DHT22;10605;52.968;8.844;2024-03-23T13:28:31;10.70;99.90
20891;DHT22;10605;52.968;8.844;2024-03-23T13:30:57;10.60;99.90
20891;DHT22;10605;52.968;8.844;2024-03-23T13:33:32;10.50;99.90
20891;DHT22;10605;52.968;8.844;2024-03-23T13:35:58;10.60;99.90
20891;DHT22;10605;52.968;8.844;2024-03-23T13:38:24;10.70;99.90
20891;DHT22;10605;52.968;8.844;2024-03-23T13:43:16;8.70;99.90
20891;DHT22;10605;52.968;8.844;2024-03-23T13:45:41;7.40;99.90
20891;DHT22;10605;52.968;8.844;2024-03-23T13:48:07;7.10;99.90
20891;DHT22;10605;52.968;8.844;2024-03-23T13:50:33;6.90;99.90
20891;DHT22;10605;52.968;8.844;2024-03-23T13:52:59;6.90;99.90
20891;DHT22;10605;52.968;8.844;2024-03-23T13:55:24;7.00;99.90
20891;DHT22;10605;52.968;8.844;2024-03-23T13:57:50;7.00;99.90
20891;DHT22;10605;52.968;8.844;2024-03-23T14:00:16;7.10;99.90
20891;DHT22;10605;52.968;8.844;2024-03-23T14:02:44;7.10;99.90
20891;DHT22;10605;52.968;8.844;2024-03-23T14:05:10;7.20;99.90
20891;DHT22;10605;52.968;8.844;2024-03-23T14:07:38;7.20;99.90
20891;DHT22;10605;52.968;8.844;2024-03-23T14:10:04;7.60;99.90
20891;DHT22;10605;52.968;8.844;2024-03-23T14:12:32;8.90;99.90
20891;DHT22;10605;52.968;8.844;2024-03-23T14:14:58;9.70;99.90
20891;DHT22;10605;52.968;8.844;2024-03-23T14:17:23;10.00;99.90
20891;DHT22;10605;52.968;8.844;2024-03-23T14:19:49;10.10;99.90
20891;DHT22;10605;52.968;8.844;2024-03-23T14:22:15;10.50;99.90
20891;DHT22;10605;52.968;8.844;2024-03-23T14:24:45;10.30;99.90
20891;DHT22;10605;52.968;8.844;2024-03-23T14:27:10;10.10;99.90
20891;DHT22;10605;52.968;8.844;2024-03-23T14:29:36;9.50;99.90
20891;DHT22;10605;52.968;8.844;2024-03-23T14:32:02;9.00;99.90
20891;DHT22;10605;52.968;8.844;2024-03-23T14:34:27;8.90;99.90
20891;DHT22;10605;52.968;8.844;2024-03-23T14:36:54;8.90;99.90
20891;DHT22;10605;52.968;8.844;2024-03-23T14:39:23;8.60;99.90
20891;DHT22;10605;52.968;8.844;2024-03-23T14:41:50;8.40;99.90
20891;DHT22;10605;52.968;8.844;2024-03-23T14:44:16;8.60;99.90
20891;DHT22;10605;52.968;8.844;2024-03-23T14:46:41;9.00;99.90
20891;DHT22;10605;52.968;8.844;2024-03-23T14:49:07;9.10;99.90
20891;DHT22;10605;52.968;8.844;2024-03-23T14:51:33;8.80;99.90
20891;DHT22;10605;52.968;8.844;2024-03-23T14:53:59;8.90;99.90
20891;DHT22;10605;52.968;8.844;2024-03-23T14:56:24;9.10;99.90
20891;DHT22;10605;52.968;8.844;2024-03-23T14:58:52;9.20;99.90
20891;DHT22;10605;52.968;8.844;2024-03-23T15:01:18;9.00;99.90
20891;DHT22;10605;52.968;8.844;2024-03-23T15:03:44;9.00;99.90
20891;DHT22;10605;52.968;8.844;2024-03-23T15:06:10;8.80;99.90
20891;DHT22;10605;52.968;8.844;2024-03-23T15:08:36;8.80;99.90
20891;DHT22;10605;52.968;8.844;2024-03-23T15:11:08;8.90;99.90
20891;DHT22;10605;52.968;8.844;2024-03-23T15:13:37;8.70;99.90
20891;DHT22;10605;52.968;8.844;2024-03-23T15:16:04;8.70;99.90
20891;DHT22;10605;52.968;8.844;2024-03-23T15:18:31;8.80;99.90
20891;DHT22;10605;52.968;8.844;2024-03-23T15:20:58;9.10;99.90
20891;DHT22;10605;52.968;8.844;2024-03-23T15:23:28;9.00;99.90
20891;DHT22;10605;52.968;8.844;2024-03-23T15:26:01;9.00;99.90
20891;DHT22;10605;52.968;8.844;2024-03-23T15:28:27;8.90;99.90
20891;DHT22;10605;52.968;8.844;2024-03-23T15:31:07;8.80;99.90
20891;DHT22;10605;52.968;8.844;2024-03-23T15:33:33;8.60;99.90
20891;DHT22;10605;52.968;8.844;2024-03-23T15:36:02;8.60;99.90
20891;DHT22;10605;52.968;8.844;2024-03-23T15:38:28;8.40;99.90
20891;DHT22;10605;52.968;8.844;2024-03-23T15:40:56;8.30;99.90
20891;DHT22;10605;52.968;8.844;2024-03-23T15:43:22;8.00;99.90
20891;DHT22;10605;52.968;8.844;2024-03-23T15:45:58;7.90;99.90
20891;DHT22;10605;52.968;8.844;2024-03-23T15:48:25;7.50;99.90
20891;DHT22;10605;52.968;8.844;2024-03-23T15:50:54;7.10;99.90
20891;DHT22;10605;52.968;8.844;2024-03-23T15:53:21;6.80;99.90
20891;DHT22;10605;52.968;8.844;2024-03-23T15:55:56;6.50;99.90
20891;DHT22;10605;52.968;8.844;2024-03-23T15:58:23;6.30;99.90
20891;DHT22;10605;52.968;8.844;2024-03-23T16:00:58;6.40;99.90
20891;DHT22;10605;52.968;8.844;2024-03-23T16:03:25;6.90;99.90
20891;DHT22;10605;52.968;8.844;2024-03-23T16:06:03;7.90;99.90
20891;DHT22;10605;52.968;8.844;2024-03-23T16:08:29;8.80;99.90
20891;DHT22;10605;52.968;8.844;2024-03-23T16:11:03;9.20;99.90
20891;DHT22;10605;52.968;8.844;2024-03-23T16:13:29;9.10;99.90
20891;DHT22;10605;52.968;8.844;2024-03-23T16:15:56;8.70;99.90
20891;DHT22;10605;52.968;8.844;2024-03-23T16:18:22;8.30;99.90
20891;DHT22;10605;52.968;8.844;2024-03-23T16:20:55;8.10;99.90
20891;DHT22;10605;52.968;8.844;2024-03-23T16:23:21;7.80;99.90
20891;DHT22;10605;52.968;8.844;2024-03-23T16:25:51;7.70;99.90
20891;DHT22;10605;52.968;8.844;2024-03-23T16:28:34;7.80;99.90
20891;DHT22;10605;52.968;8.844;2024-03-23T16:31:05;7.70;99.90
20891;DHT22;10605;52.968;8.844;2024-03-23T16:33:32;7.60;99.90
20891;DHT22;10605;52.968;8.844;2024-03-23T16:36:10;7.50;99.90
20891;DHT22;10605;52.968;8.844;2024-03-23T16:38:40;7.40;99.90
20891;DHT22;10605;52.968;8.844;2024-03-23T16:41:07;7.20;99.90
20891;DHT22;10605;52.968;8.844;2024-03-23T16:43:34;7.10;99.90
20891;DHT22;10605;52.968;8.844;2024-03-23T16:46:05;7.00;99.90
20891;DHT22;10605;52.968;8.844;2024-03-23T16:48:32;6.90;99.90
20891;DHT22;10605;52.968;8.844;2024-03-23T16:50:59;6.80;99.90
20891;DHT22;10605;52.968;8.844;2024-03-23T16:53:26;6.90;99.90